Vohburg — V2OW7 — position and weather

sailwx.info

Track history (hours):
 
Tides and Currents Weather Stations Pressure Air Temp Water Temp Dewpoint Dewpoint Depression Visibility Wind Speed Wind Dir Waves Ship Positions

Vohburg

Last reported at 2017-Feb-21 11:10 UTC. Time now 2017-Feb-24 02:06 UTC.
Position N 57°42' E 010°05'.

Length 140 m; draft 7.4 m.

Type: Ship (hazmat cat A). MMSI: 305773000.

Date/timePositionNaut miles runAvg speedWind from/ knotsBaromVisibWave heightAir tempDewpointWater temp
2017-Feb-21 11:10N 57°42' E 010°05'812.6
2017-Feb-21 10:32N 57°44' E 010°19'1312.8
2017-Feb-21 09:33N 57°48' E 010°41'1312.9
2017-Feb-21 08:33N 57°42' E 011°02'1413.9
2017-Feb-21 07:33N 57°32' E 011°20'1312.8
2017-Feb-21 06:33N 57°20' E 011°32'1312.9
2017-Feb-21 05:33N 57°08' E 011°39'5212.8
2017-Feb-21 01:31N 56°20' E 012°16'1313.7
2017-Feb-21 00:33N 56°10' E 012°30'1211.6
2017-Feb-20 23:33N 55°60' E 012°41'1212.3
2017-Feb-20 22:33N 55°48' E 012°43'1211.8
2017-Feb-20 21:33N 55°36' E 012°42'1110.6
2017-Feb-20 20:33N 55°25' E 012°42'1211.5
2017-Feb-20 19:33N 55°16' E 012°53'1413.9
2017-Feb-20 18:33N 55°15' E 013°18'1413.5
2017-Feb-20 17:33N 55°14' E 013°42'1413.4
2017-Feb-20 16:33N 55°14' E 014°05'1211.8
2017-Feb-20 15:33N 55°19' E 014°24'1313.1
2017-Feb-20 14:33N 55°28' E 014°40'1313.0
2017-Feb-20 13:33N 55°34' E 015°01'1212.5
2017-Feb-20 12:33N 55°40' E 015°19'1211.9
2017-Feb-20 11:33N 55°47' E 015°37'1212.3
2017-Feb-20 10:33N 55°53' E 015°56'1212.1
2017-Feb-20 09:33N 55°59' E 016°15'1212.2
2017-Feb-20 08:33N 56°05' E 016°34'1312.9
2017-Feb-20 07:34N 56°12' E 016°53'291 6.2
2017-Feb-18 08:33N 59°37' E 023°21'1615.6
2017-Feb-18 07:33N 59°42' E 023°51'5115.6
2017-Feb-18 04:17N 59°54' E 025°29'1115.7
2017-Feb-18 03:33N 59°56' E 025°52'1615.8
2017-Feb-18 02:33N 59°60' E 026°23'1515.4
2017-Feb-18 01:33N 60°00' E 026°53'1514.7
2017-Feb-18 00:33N 60°05' E 027°21'1515.3
2017-Feb-17 23:33N 60°12' E 027°49'1414.2
2017-Feb-17 22:33N 60°08' E 028°17'1312.5
2017-Feb-17 21:33N 60°03' E 028°40'1110.9
2017-Feb-17 20:33N 60°02' E 029°01'14 9.6
2017-Feb-17 19:07N 60°01' E 029°29'4 6.0
2017-Feb-17 18:27N 60°00' E 029°36'3 3.4
2017-Feb-17 17:31N 60°00' E 029°43'0 0.0
2017-Feb-17 16:31N 60°00' E 029°43'0 0.0
2017-Feb-17 15:28N 60°00' E 029°43'0 0.0
2017-Feb-17 14:31N 60°00' E 029°43'0 0.0
2017-Feb-17 13:34N 60°00' E 029°43'0 0.0
2017-Feb-17 12:30N 60°00' E 029°43'0 0.0
2017-Feb-17 11:18N 60°00' E 029°43'0 0.0
2017-Feb-17 10:33N 60°00' E 029°43'0 0.0
2017-Feb-17 09:30N 60°00' E 029°43'0 0.0
2017-Feb-17 08:30N 60°00' E 029°43'0 0.0
2017-Feb-17 07:33N 60°00' E 029°43'0 0.0
2017-Feb-17 06:33N 60°00' E 029°43'1 0.9
2017-Feb-17 05:33N 59°59' E 029°43'7 6.0
2017-Feb-17 04:20N 60°01' E 029°29'5 5.9
2017-Feb-17 03:32N 60°01' E 029°19'1212.6
2017-Feb-17 02:33N 60°02' E 028°54'1211.9
2017-Feb-17 01:33N 60°02' E 028°30'1313.3
2017-Feb-17 00:33N 60°08' E 028°07'1414.1
2017-Feb-16 23:33N 60°08' E 027°38'1615.8
2017-Feb-16 22:32N 59°60' E 027°10'1515.5
2017-Feb-16 21:33N 59°59' E 026°40'1716.2
2017-Feb-16 20:29N 59°56' E 026°06'1415.1
2017-Feb-16 19:33N 59°58' E 025°39'25 1.8
2017-Feb-16 05:34N 59°49' E 024°52'3014.6
2017-Feb-16 03:29N 59°39' E 023°55'1415.4
2017-Feb-16 02:33N 59°34' E 023°29'4615.5
2017-Feb-15 23:33N 59°14' E 022°07'1715.9
2017-Feb-15 22:31N 59°03' E 021°42'4715.9
2017-Feb-15 19:32N 58°26' E 020°46'22416.0
2017-Feb-15 05:31N 55°47' E 015°56'1516.0
2017-Feb-15 04:33N 55°40' E 015°31'1615.9
2017-Feb-15 03:33N 55°32' E 015°06'1616.1
2017-Feb-15 02:33N 55°25' E 014°41'1616.3
2017-Feb-15 01:33N 55°13' E 014°22'1616.2
2017-Feb-15 00:33N 55°01' E 014°03'1616.2
2017-Feb-14 23:34N 54°56' E 013°36'1616.5
2017-Feb-14 22:34N 54°50' E 013°09'1616.2
2017-Feb-14 21:33N 54°45' E 012°43'1616.4
2017-Feb-14 20:33N 54°35' E 012°19'1514.8
2017-Feb-14 19:34N 54°24' E 012°03'1615.7
2017-Feb-14 18:33N 54°17' E 011°39'1615.9
2017-Feb-14 17:33N 54°09' E 011°16'1515.0
2017-Feb-14 16:33N 53°59' E 010°55'7 6.5
2017-Feb-14 15:24N 53°54' E 010°46'2 0.2
2017-Feb-14 06:04N 53°54' E 010°49'3 6.7
2017-Feb-14 05:33N 53°57' E 010°52'6 6.0
2017-Feb-14 04:31N 54°02' E 010°57'0 0.1
2017-Feb-14 03:31N 54°02' E 010°57'0 0.0
2017-Feb-14 02:31N 54°02' E 010°57'0 0.0
2017-Feb-14 01:31N 54°02' E 010°56'0 0.0
2017-Feb-14 00:31N 54°02' E 010°56'0 0.0
2017-Feb-13 23:28N 54°02' E 010°56'0 0.0
2017-Feb-13 22:31N 54°02' E 010°56'0 0.0
2017-Feb-13 21:33N 54°02' E 010°57'1111.2
2017-Feb-13 20:34N 54°09' E 011°12'1414.3
2017-Feb-13 19:33N 54°22' E 011°23'1313.0
2017-Feb-13 18:33N 54°34' E 011°15'1414.2
2017-Feb-13 17:33N 54°41' E 010°54'1414.0
2017-Feb-13 16:33N 54°55' E 010°54'1414.3
2017-Feb-13 15:33N 55°09' E 011°03'1413.9
2017-Feb-13 14:33N 55°23' E 011°01'1514.6
2017-Feb-13 13:33N 55°36' E 010°48'2713.5
2017-Feb-13 11:32N 56°01' E 011°04'1414.3
2017-Feb-13 10:32N 56°16' E 011°05'1614.7
2017-Feb-13 09:27N 56°32' E 011°04'1314.5
2017-Feb-13 08:33N 56°44' E 010°59'1413.2
2017-Feb-13 07:31N 56°57' E 010°51'1715.9
2017-Feb-13 06:28N 57°14' E 010°43'1415.7
2017-Feb-13 05:33N 57°28' E 010°43'1615.9
2017-Feb-13 04:33N 57°44' E 010°46'1212.2
2017-Feb-13 03:33N 57°46' E 010°23'1515.1
2017-Feb-13 02:33N 57°42' E 009°56'1515.3
2017-Feb-13 01:33N 57°34' E 009°31'1615.8
2017-Feb-13 00:33N 57°25' E 009°07'1615.8
2017-Feb-12 23:33N 57°16' E 008°42'15814.4
2017-Feb-12 12:32N 55°08' E 005°55'1212.1
2017-Feb-12 11:32N 54°57' E 005°47'11811.8
2017-Feb-12 01:34N 53°08' E 004°29'1414.0
2017-Feb-12 00:33N 52°56' E 004°18'1513.9
2017-Feb-11 23:29N 52°44' E 004°04'1314.1
2017-Feb-11 22:33N 52°34' E 003°50'5413.3
2017-Feb-11 18:28N 51°45' E 003°10'1314.1
2017-Feb-11 17:33N 51°36' E 002°56'1414.1
2017-Feb-11 16:34N 51°24' E 002°44'1313.4
2017-Feb-11 15:33N 51°24' E 003°05'5 5.1
2017-Feb-11 14:33N 51°21' E 003°11'0 0.0
2017-Feb-11 13:33N 51°21' E 003°11'0 0.0
2017-Feb-11 12:33N 51°21' E 003°11'0 0.0
2017-Feb-11 11:33N 51°21' E 003°11'  
Track history (hours):
 
Tides and Currents Weather Stations Pressure Air Temp Water Temp Dewpoint Dewpoint Depression Visibility Wind Speed Wind Dir Waves Ship Positions

Vohburg

Last reported at 2017-Feb-21 11:10 UTC. Time now 2017-Feb-24 02:06 UTC.
Position N 57°42' E 010°05'.

Length 140 m; draft 7.4 m.

Type: Ship (hazmat cat A). MMSI: 305773000.

Date/timePositionNaut miles runAvg speedWind from/ knotsBaromVisibWave heightAir tempDewpointWater temp
2017-Feb-21 11:10N 57°42' E 010°05'812.6
2017-Feb-21 10:32N 57°44' E 010°19'1312.8
2017-Feb-21 09:33N 57°48' E 010°41'1312.9
2017-Feb-21 08:33N 57°42' E 011°02'1413.9
2017-Feb-21 07:33N 57°32' E 011°20'1312.8
2017-Feb-21 06:33N 57°20' E 011°32'1312.9
2017-Feb-21 05:33N 57°08' E 011°39'5212.8
2017-Feb-21 01:31N 56°20' E 012°16'1313.7
2017-Feb-21 00:33N 56°10' E 012°30'1211.6
2017-Feb-20 23:33N 55°60' E 012°41'1212.3
2017-Feb-20 22:33N 55°48' E 012°43'1211.8
2017-Feb-20 21:33N 55°36' E 012°42'1110.6
2017-Feb-20 20:33N 55°25' E 012°42'1211.5
2017-Feb-20 19:33N 55°16' E 012°53'1413.9
2017-Feb-20 18:33N 55°15' E 013°18'1413.5
2017-Feb-20 17:33N 55°14' E 013°42'1413.4
2017-Feb-20 16:33N 55°14' E 014°05'1211.8
2017-Feb-20 15:33N 55°19' E 014°24'1313.1
2017-Feb-20 14:33N 55°28' E 014°40'1313.0
2017-Feb-20 13:33N 55°34' E 015°01'1212.5
2017-Feb-20 12:33N 55°40' E 015°19'1211.9
2017-Feb-20 11:33N 55°47' E 015°37'1212.3
2017-Feb-20 10:33N 55°53' E 015°56'1212.1
2017-Feb-20 09:33N 55°59' E 016°15'1212.2
2017-Feb-20 08:33N 56°05' E 016°34'1312.9
2017-Feb-20 07:34N 56°12' E 016°53'291 6.2
2017-Feb-18 08:33N 59°37' E 023°21'1615.6
2017-Feb-18 07:33N 59°42' E 023°51'5115.6
2017-Feb-18 04:17N 59°54' E 025°29'1115.7
2017-Feb-18 03:33N 59°56' E 025°52'1615.8
2017-Feb-18 02:33N 59°60' E 026°23'1515.4
2017-Feb-18 01:33N 60°00' E 026°53'1514.7
2017-Feb-18 00:33N 60°05' E 027°21'1515.3
2017-Feb-17 23:33N 60°12' E 027°49'1414.2
2017-Feb-17 22:33N 60°08' E 028°17'1312.5
2017-Feb-17 21:33N 60°03' E 028°40'1110.9
2017-Feb-17 20:33N 60°02' E 029°01'14 9.6
2017-Feb-17 19:07N 60°01' E 029°29'4 6.0
2017-Feb-17 18:27N 60°00' E 029°36'3 3.4
2017-Feb-17 17:31N 60°00' E 029°43'0 0.0
2017-Feb-17 16:31N 60°00' E 029°43'0 0.0
2017-Feb-17 15:28N 60°00' E 029°43'0 0.0
2017-Feb-17 14:31N 60°00' E 029°43'0 0.0
2017-Feb-17 13:34N 60°00' E 029°43'0 0.0
2017-Feb-17 12:30N 60°00' E 029°43'0 0.0
2017-Feb-17 11:18N 60°00' E 029°43'0 0.0
2017-Feb-17 10:33N 60°00' E 029°43'0 0.0
2017-Feb-17 09:30N 60°00' E 029°43'0 0.0
2017-Feb-17 08:30N 60°00' E 029°43'0 0.0
2017-Feb-17 07:33N 60°00' E 029°43'0 0.0
2017-Feb-17 06:33N 60°00' E 029°43'1 0.9
2017-Feb-17 05:33N 59°59' E 029°43'7 6.0
2017-Feb-17 04:20N 60°01' E 029°29'5 5.9
2017-Feb-17 03:32N 60°01' E 029°19'1212.6
2017-Feb-17 02:33N 60°02' E 028°54'1211.9
2017-Feb-17 01:33N 60°02' E 028°30'1313.3
2017-Feb-17 00:33N 60°08' E 028°07'1414.1
2017-Feb-16 23:33N 60°08' E 027°38'1615.8
2017-Feb-16 22:32N 59°60' E 027°10'1515.5
2017-Feb-16 21:33N 59°59' E 026°40'1716.2
2017-Feb-16 20:29N 59°56' E 026°06'1415.1
2017-Feb-16 19:33N 59°58' E 025°39'25 1.8
2017-Feb-16 05:34N 59°49' E 024°52'3014.6
2017-Feb-16 03:29N 59°39' E 023°55'1415.4
2017-Feb-16 02:33N 59°34' E 023°29'4615.5
2017-Feb-15 23:33N 59°14' E 022°07'1715.9
2017-Feb-15 22:31N 59°03' E 021°42'4715.9
2017-Feb-15 19:32N 58°26' E 020°46'22416.0
2017-Feb-15 05:31N 55°47' E 015°56'1516.0
2017-Feb-15 04:33N 55°40' E 015°31'1615.9
2017-Feb-15 03:33N 55°32' E 015°06'1616.1
2017-Feb-15 02:33N 55°25' E 014°41'1616.3
2017-Feb-15 01:33N 55°13' E 014°22'1616.2
2017-Feb-15 00:33N 55°01' E 014°03'1616.2
2017-Feb-14 23:34N 54°56' E 013°36'1616.5
2017-Feb-14 22:34N 54°50' E 013°09'1616.2
2017-Feb-14 21:33N 54°45' E 012°43'1616.4
2017-Feb-14 20:33N 54°35' E 012°19'1514.8
2017-Feb-14 19:34N 54°24' E 012°03'1615.7
2017-Feb-14 18:33N 54°17' E 011°39'1615.9
2017-Feb-14 17:33N 54°09' E 011°16'1515.0
2017-Feb-14 16:33N 53°59' E 010°55'7 6.5
2017-Feb-14 15:24N 53°54' E 010°46'2 0.2
2017-Feb-14 06:04N 53°54' E 010°49'3 6.7
2017-Feb-14 05:33N 53°57' E 010°52'6 6.0
2017-Feb-14 04:31N 54°02' E 010°57'0 0.1
2017-Feb-14 03:31N 54°02' E 010°57'0 0.0
2017-Feb-14 02:31N 54°02' E 010°57'0 0.0
2017-Feb-14 01:31N 54°02' E 010°56'0 0.0
2017-Feb-14 00:31N 54°02' E 010°56'0 0.0
2017-Feb-13 23:28N 54°02' E 010°56'0 0.0
2017-Feb-13 22:31N 54°02' E 010°56'0 0.0
2017-Feb-13 21:33N 54°02' E 010°57'1111.2
2017-Feb-13 20:34N 54°09' E 011°12'1414.3
2017-Feb-13 19:33N 54°22' E 011°23'1313.0
2017-Feb-13 18:33N 54°34' E 011°15'1414.2
2017-Feb-13 17:33N 54°41' E 010°54'1414.0
2017-Feb-13 16:33N 54°55' E 010°54'1414.3
2017-Feb-13 15:33N 55°09' E 011°03'1413.9
2017-Feb-13 14:33N 55°23' E 011°01'1514.6
2017-Feb-13 13:33N 55°36' E 010°48'2713.5
2017-Feb-13 11:32N 56°01' E 011°04'1414.3
2017-Feb-13 10:32N 56°16' E 011°05'1614.7
2017-Feb-13 09:27N 56°32' E 011°04'1314.5
2017-Feb-13 08:33N 56°44' E 010°59'1413.2
2017-Feb-13 07:31N 56°57' E 010°51'1715.9
2017-Feb-13 06:28N 57°14' E 010°43'1415.7
2017-Feb-13 05:33N 57°28' E 010°43'1615.9
2017-Feb-13 04:33N 57°44' E 010°46'1212.2
2017-Feb-13 03:33N 57°46' E 010°23'1515.1
2017-Feb-13 02:33N 57°42' E 009°56'1515.3
2017-Feb-13 01:33N 57°34' E 009°31'1615.8
2017-Feb-13 00:33N 57°25' E 009°07'1615.8
2017-Feb-12 23:33N 57°16' E 008°42'15814.4
2017-Feb-12 12:32N 55°08' E 005°55'1212.1
2017-Feb-12 11:32N 54°57' E 005°47'11811.8
2017-Feb-12 01:34N 53°08' E 004°29'1414.0
2017-Feb-12 00:33N 52°56' E 004°18'1513.9
2017-Feb-11 23:29N 52°44' E 004°04'1314.1
2017-Feb-11 22:33N 52°34' E 003°50'5413.3
2017-Feb-11 18:28N 51°45' E 003°10'1314.1
2017-Feb-11 17:33N 51°36' E 002°56'1414.1
2017-Feb-11 16:34N 51°24' E 002°44'1313.4
2017-Feb-11 15:33N 51°24' E 003°05'5 5.1
2017-Feb-11 14:33N 51°21' E 003°11'0 0.0
2017-Feb-11 13:33N 51°21' E 003°11'0 0.0
2017-Feb-11 12:33N 51°21' E 003°11'0 0.0
2017-Feb-11 11:33N 51°21' E 003°11'  

Dump ship's entire track history